Time;durP1;ratioP1;P1;durP2;ratioP2;P2;SDS_P1;SDS_P2;PMS_P1;PMS_P2;Temp;Humidity;BMP_temperature;BMP_pressure;BME280_temperature;BME280_humidity;BME280_pressure;Samples;Min_cycle;Max_cycle;Signal;HPM_P1;HPM_P2
2023/03/06 00:01:47;;;;;;;1999.90;999.90;;;1.60;99.90;;;;;;5012330;28;20021;-80
2023/03/06 00:04:13;;;;;;;1999.90;999.90;;;1.50;99.90;;;;;;4994446;28;20019;-80
2023/03/06 00:06:39;;;;;;;1999.90;999.90;;;1.50;99.90;;;;;;4993229;28;20031;-72
2023/03/06 00:09:05;;;;;;;1999.90;999.90;;;1.50;99.90;;;;;;4993409;28;20023;-72
2023/03/06 00:11:30;;;;;;;1999.90;999.90;;;1.50;99.90;;;;;;4993552;28;20109;-80
2023/03/06 00:13:56;;;;;;;1999.90;999.90;;;1.40;99.90;;;;;;4993125;28;20128;-72
2023/03/06 00:16:22;;;;;;;1999.90;999.90;;;1.40;99.90;;;;;;4996366;28;20068;-80
2023/03/06 00:18:47;;;;;;;1999.90;999.90;;;1.40;99.90;;;;;;5012223;28;20030;-72
2023/03/06 00:21:13;;;;;;;1999.90;999.90;;;1.40;99.90;;;;;;4996239;28;20080;-72
2023/03/06 00:23:40;;;;;;;1999.90;999.90;;;1.30;99.90;;;;;;4997237;28;20049;-74
2023/03/06 00:26:07;;;;;;;1999.90;999.90;;;1.30;99.90;;;;;;5011339;28;20485;-80
2023/03/06 00:28:33;;;;;;;1999.90;999.90;;;1.30;99.90;;;;;;4996982;28;20026;-80
2023/03/06 00:30:59;;;;;;;1999.90;999.90;;;1.30;99.90;;;;;;5012212;28;20055;-72
2023/03/06 00:33:25;;;;;;;1999.90;999.90;;;1.30;99.90;;;;;;5016404;28;20485;-72
2023/03/06 00:35:50;;;;;;;1999.90;999.90;;;1.20;99.90;;;;;;5016712;28;20026;-72
2023/03/06 00:38:16;;;;;;;1999.90;999.90;;;1.20;99.90;;;;;;5016340;28;20041;-80
2023/03/06 00:40:42;;;;;;;1999.90;999.90;;;1.20;99.90;;;;;;5015925;28;20026;-72
2023/03/06 00:43:07;;;;;;;1999.90;999.90;;;1.20;99.90;;;;;;5015032;28;20558;-72
2023/03/06 00:45:33;;;;;;;1999.90;999.90;;;1.20;99.90;;;;;;5016145;28;20443;-80
2023/03/06 00:47:58;;;;;;;1999.90;999.90;;;1.20;99.90;;;;;;5016111;28;20056;-72
2023/03/06 00:50:24;;;;;;;1999.90;999.90;;;1.10;99.90;;;;;;5016348;28;20148;-80
2023/03/06 00:52:50;;;;;;;1999.90;999.90;;;1.10;99.90;;;;;;5014684;28;20033;-80
2023/03/06 00:55:15;;;;;;;1999.90;999.90;;;1.10;99.90;;;;;;5016281;28;20029;-72
2023/03/06 00:57:41;;;;;;;1999.90;999.90;;;1.10;99.90;;;;;;5016089;28;20131;-72
2023/03/06 01:00:09;;;;;;;1999.90;999.90;;;1.10;99.90;;;;;;5015409;28;20014;-72
2023/03/06 01:02:35;;;;;;;1999.90;999.90;;;1.10;99.90;;;;;;5011001;28;20401;-72
2023/03/06 01:05:01;;;;;;;1999.90;999.90;;;1.10;99.90;;;;;;4996308;28;20018;-72
2023/03/06 01:07:27;;;;;;;1999.90;999.90;;;1.10;99.90;;;;;;4996320;28;20034;-80
2023/03/06 01:09:53;;;;;;;1999.90;999.90;;;1.10;99.90;;;;;;4996147;28;20073;-72
2023/03/06 01:12:18;;;;;;;1999.90;999.90;;;1.10;99.90;;;;;;4996339;28;20026;-72
2023/03/06 01:14:44;;;;;;;1999.90;999.90;;;1.00;99.90;;;;;;4995581;28;20034;-72
2023/03/06 01:17:10;;;;;;;1999.90;999.90;;;1.00;99.90;;;;;;4995318;28;20097;-72
2023/03/06 01:19:36;;;;;;;1999.90;999.90;;;1.00;99.90;;;;;;4994741;28;20034;-80
2023/03/06 01:22:01;;;;;;;1999.90;999.90;;;1.10;99.90;;;;;;4996450;28;20026;-72
2023/03/06 01:24:27;;;;;;;1999.90;999.90;;;1.00;99.90;;;;;;4995928;28;20027;-72
2023/03/06 01:26:53;;;;;;;1999.90;999.90;;;1.00;99.90;;;;;;4995395;28;20073;-72
2023/03/06 01:29:19;;;;;;;1999.90;999.90;;;1.00;99.90;;;;;;4995730;28;20058;-72
2023/03/06 01:31:44;;;;;;;1999.90;999.90;;;1.00;99.90;;;;;;4995717;28;20035;-80
2023/03/06 01:34:10;;;;;;;1999.90;999.90;;;1.00;99.90;;;;;;4996156;28;20504;-80
2023/03/06 01:36:35;;;;;;;1999.90;999.90;;;1.00;99.90;;;;;;4995775;28;20407;-72
2023/03/06 01:39:02;;;;;;;1999.90;999.90;;;1.00;99.90;;;;;;4999994;28;20027;-72
2023/03/06 01:41:28;;;;;;;1999.90;999.90;;;1.00;99.90;;;;;;5034892;28;20013;-72
2023/03/06 01:43:54;;;;;;;1999.90;999.90;;;1.00;99.90;;;;;;5035273;28;20029;-72
2023/03/06 01:46:32;;;;;;;1999.90;999.90;;;1.00;99.90;;;;;;5023052;28;20056;-80
2023/03/06 01:49:06;;;;;;;1999.90;999.90;;;0.90;99.90;;;;;;5015278;28;20109;-72
2023/03/06 01:51:36;;;;;;;1999.90;999.90;;;0.90;99.90;;;;;;5013617;28;20547;-72
2023/03/06 01:54:10;;;;;;;1999.90;999.90;;;0.90;99.90;;;;;;5014918;28;20128;-72
2023/03/06 01:56:38;;;;;;;1999.90;999.90;;;0.90;99.90;;;;;;5015337;28;20033;-80
2023/03/06 01:59:06;;;;;;;1999.90;999.90;;;1.00;99.90;;;;;;5014908;28;20026;-80
2023/03/06 02:01:32;;;;;;;1999.90;999.90;;;1.00;99.90;;;;;;5014340;28;20057;-72
2023/03/06 02:03:59;;;;;;;1999.90;999.90;;;1.00;99.90;;;;;;4998414;28;20370;-72
2023/03/06 02:06:25;;;;;;;1999.90;999.90;;;1.00;99.90;;;;;;4995137;28;20023;-72
2023/03/06 02:08:51;;;;;;;1999.90;999.90;;;1.00;99.90;;;;;;4995128;28;20065;-80
2023/03/06 02:11:20;;;;;;;1999.90;999.90;;;1.00;99.90;;;;;;4995324;28;20139;-80
2023/03/06 02:13:47;;;;;;;1999.90;999.90;;;1.00;99.90;;;;;;4995176;28;20045;-72
2023/03/06 02:16:14;;;;;;;1999.90;999.90;;;1.00;99.90;;;;;;4995041;28;20014;-72
2023/03/06 02:18:42;;;;;;;1999.90;999.90;;;1.00;99.90;;;;;;4994866;28;20038;-72
2023/03/06 02:21:13;;;;;;;1999.90;999.90;;;1.00;99.90;;;;;;4995152;28;20034;-72
2023/03/06 02:24:00;;;;;;;1999.90;999.90;;;1.00;99.90;;;;;;4995020;28;20033;-80
2023/03/06 02:26:27;;;;;;;1999.90;999.90;;;1.00;99.90;;;;;;4994932;28;20493;-72
2023/03/06 02:28:53;;;;;;;1999.90;999.90;;;1.00;99.90;;;;;;4994979;28;20485;-80
2023/03/06 02:31:27;;;;;;;1999.90;999.90;;;1.00;99.90;;;;;;4994438;28;20034;-72
2023/03/06 02:34:27;;;;;;;1999.90;999.90;;;1.10;99.90;;;;;;4995148;28;20030;-72
2023/03/06 02:36:57;;;;;;;1999.90;999.90;;;1.00;99.90;;;;;;5009721;28;20485;-80
2023/03/06 02:39:26;;;;;;;1999.90;999.90;;;1.00;99.90;;;;;;5003513;28;20100;-72
2023/03/06 02:41:52;;;;;;;1999.90;999.90;;;1.10;99.90;;;;;;5033875;28;20022;-72
2023/03/06 02:44:18;;;;;;;1999.90;999.90;;;1.10;99.90;;;;;;5033968;28;20071;-72
2023/03/06 02:46:43;;;;;;;1999.90;999.90;;;1.20;99.90;;;;;;5018596;28;20046;-72
2023/03/06 02:49:09;;;;;;;1999.90;999.90;;;1.20;99.90;;;;;;5014153;28;20105;-80
2023/03/06 02:51:35;;;;;;;1999.90;999.90;;;1.30;99.90;;;;;;5013913;28;20033;-72
2023/03/06 02:54:00;;;;;;;1999.90;999.90;;;1.40;99.90;;;;;;5013827;28;20030;-73
2023/03/06 02:56:26;;;;;;;1999.90;999.90;;;1.50;99.90;;;;;;5013870;28;20400;-74
2023/03/06 02:58:52;;;;;;;1999.90;999.90;;;1.60;99.90;;;;;;5014007;28;20021;-75
2023/03/06 03:01:17;;;;;;;1999.90;999.90;;;1.70;99.90;;;;;;5012984;28;20018;-83
2023/03/06 03:03:43;;;;;;;1999.90;999.90;;;1.80;99.90;;;;;;4999384;28;20504;-74
2023/03/06 03:06:09;;;;;;;1999.90;999.90;;;1.80;99.90;;;;;;4994161;28;20500;-72
2023/03/06 03:08:36;;;;;;;1999.90;999.90;;;1.80;99.90;;;;;;4994017;28;20034;-72
2023/03/06 03:11:03;;;;;;;1999.90;999.90;;;1.80;99.90;;;;;;4993971;28;20022;-72
2023/03/06 03:13:28;;;;;;;1999.90;999.90;;;1.80;99.90;;;;;;4993833;28;20034;-81
2023/03/06 03:16:01;;;;;;;1999.90;999.90;;;1.80;99.90;;;;;;5025607;28;20027;-81
2023/03/06 03:18:27;;;;;;;1999.90;999.90;;;1.80;99.90;;;;;;4993741;28;20026;-72
2023/03/06 03:20:53;;;;;;;1999.90;999.90;;;1.80;99.90;;;;;;4993890;28;20030;-72
2023/03/06 03:23:19;;;;;;;1999.90;999.90;;;1.80;99.90;;;;;;5008873;28;20501;-72
2023/03/06 03:25:44;;;;;;;1999.90;999.90;;;1.80;99.90;;;;;;4993809;28;20029;-72
2023/03/06 03:28:10;;;;;;;1999.90;999.90;;;1.90;99.90;;;;;;4993993;28;20449;-80
2023/03/06 03:30:38;;;;;;;1999.90;999.90;;;2.00;99.90;;;;;;4993683;28;20094;-72
2023/03/06 03:33:04;;;;;;;1999.90;999.90;;;2.10;99.90;;;;;;4993605;28;20033;-73
2023/03/06 03:35:29;;;;;;;1999.90;999.90;;;2.10;99.90;;;;;;4993842;28;20026;-72
2023/03/06 03:37:55;;;;;;;1999.90;999.90;;;2.20;99.90;;;;;;4993746;28;20030;-72
2023/03/06 03:40:21;;;;;;;1999.90;999.90;;;2.20;99.90;;;;;;5024744;28;20048;-80
2023/03/06 03:42:46;;;;;;;1999.90;999.90;;;2.30;99.90;;;;;;5032931;28;20053;-80
2023/03/06 03:45:12;;;;;;;1999.90;999.90;;;2.40;99.90;;;;;;5030063;28;20065;-72
2023/03/06 03:47:38;;;;;;;1999.90;999.90;;;2.40;99.90;;;;;;5013001;28;20108;-72
2023/03/06 03:50:04;;;;;;;1999.90;999.90;;;2.50;99.90;;;;;;5012942;28;20404;-72
2023/03/06 03:52:29;;;;;;;1999.90;999.90;;;2.50;99.90;;;;;;5012939;28;20022;-73
2023/03/06 03:54:55;;;;;;;1999.90;999.90;;;2.60;99.90;;;;;;5013023;28;20550;-81
2023/03/06 03:57:20;;;;;;;1999.90;999.90;;;2.70;99.90;;;;;;5013079;28;20025;-72
2023/03/06 03:59:46;;;;;;;1999.90;999.90;;;2.70;99.90;;;;;;5013100;28;20038;-72
2023/03/06 04:02:12;;;;;;;1999.90;999.90;;;2.80;99.90;;;;;;5010270;28;20373;-72
2023/03/06 04:04:37;;;;;;;1999.90;999.90;;;2.80;99.90;;;;;;4993250;28;20058;-72
2023/03/06 04:07:03;;;;;;;1999.90;999.90;;;3.00;99.90;;;;;;4993286;28;20477;-81
2023/03/06 04:09:29;;;;;;;1999.90;999.90;;;3.00;99.90;;;;;;4993228;28;20269;-80
2023/03/06 04:11:54;;;;;;;1999.90;999.90;;;3.10;99.90;;;;;;4993560;28;20093;-72
2023/03/06 04:14:20;;;;;;;1999.90;999.90;;;3.20;99.90;;;;;;4993243;28;20485;-73
2023/03/06 04:16:46;;;;;;;1999.90;999.90;;;3.20;99.90;;;;;;4992639;28;20105;-72
2023/03/06 04:19:11;;;;;;;1999.90;999.90;;;3.20;99.90;;;;;;4993279;28;20374;-80
2023/03/06 04:21:37;;;;;;;1999.90;999.90;;;3.20;99.90;;;;;;4993041;28;20073;-80
2023/03/06 04:24:03;;;;;;;1999.90;999.90;;;3.20;99.90;;;;;;4993245;28;20397;-72
2023/03/06 04:26:28;;;;;;;1999.90;999.90;;;3.30;99.90;;;;;;4993409;28;20037;-73
2023/03/06 04:28:54;;;;;;;1999.90;999.90;;;3.30;99.90;;;;;;5024561;28;20034;-72
2023/03/06 04:31:20;;;;;;;1999.90;999.90;;;3.30;99.90;;;;;;4993023;28;20034;-72
2023/03/06 04:33:46;;;;;;;1999.90;999.90;;;3.30;99.90;;;;;;4992979;28;20478;-81
2023/03/06 04:36:43;;;;;;;1999.90;999.90;;;3.30;99.90;;;;;;5024560;28;20028;-80
2023/03/06 04:39:11;;;;;;;1999.90;999.90;;;3.30;99.90;;;;;;4999153;28;20037;-72
2023/03/06 04:41:37;;;;;;;1999.90;999.90;;;3.40;99.90;;;;;;5032277;28;20032;-72
2023/03/06 04:44:03;;;;;;;1999.90;999.90;;;3.50;99.90;;;;;;5032201;28;20021;-72
2023/03/06 04:46:28;;;;;;;1999.90;999.90;;;3.50;99.90;;;;;;5019157;28;20430;-72
2023/03/06 04:48:54;;;;;;;1999.90;999.90;;;3.50;99.90;;;;;;5012937;28;20057;-80
2023/03/06 04:51:19;;;;;;;1999.90;999.90;;;3.50;99.90;;;;;;5012552;28;20022;-72
2023/03/06 04:53:45;;;;;;;1999.90;999.90;;;3.50;99.90;;;;;;5012462;28;20022;-72
2023/03/06 04:56:11;;;;;;;1999.90;999.90;;;3.60;99.90;;;;;;5012567;28;20033;-72
2023/03/06 04:58:37;;;;;;;1999.90;999.90;;;3.50;99.90;;;;;;5012316;28;20100;-81
2023/03/06 05:01:03;;;;;;;1999.90;999.90;;;3.50;99.90;;;;;;5012356;28;20026;-80
2023/03/06 05:03:29;;;;;;;1999.90;999.90;;;3.50;99.90;;;;;;5002404;28;20026;-72
2023/03/06 05:05:54;;;;;;;1999.90;999.90;;;3.50;99.90;;;;;;4996482;28;20037;-72
2023/03/06 05:08:20;;;;;;;1999.90;999.90;;;3.50;99.90;;;;;;4996252;28;20034;-72
2023/03/06 05:10:52;;;;;;;1999.90;999.90;;;3.50;99.90;;;;;;4996381;28;20033;-72
2023/03/06 05:13:17;;;;;;;1999.90;999.90;;;3.50;99.90;;;;;;4996097;28;20030;-80
2023/03/06 05:15:43;;;;;;;1999.90;999.90;;;3.50;99.90;;;;;;4996154;28;20037;-72
2023/03/06 05:18:09;;;;;;;1999.90;999.90;;;3.50;99.90;;;;;;4996062;28;20014;-72
2023/03/06 05:20:34;;;;;;;1999.90;999.90;;;3.50;99.90;;;;;;4996437;28;20432;-72
2023/03/06 05:23:00;;;;;;;1999.90;999.90;;;3.50;99.90;;;;;;4996270;28;20034;-72
2023/03/06 05:25:25;;;;;;;1999.90;999.90;;;3.50;99.90;;;;;;5010985;28;20498;-80
2023/03/06 05:27:51;;;;;;;1999.90;999.90;;;3.50;99.90;;;;;;4996022;28;20026;-80
2023/03/06 05:30:17;;;;;;;1999.90;999.90;;;3.50;99.90;;;;;;4995841;28;20388;-72
2023/03/06 05:32:43;;;;;;;1999.90;999.90;;;3.50;99.90;;;;;;4996060;28;20081;-72
2023/03/06 05:35:18;;;;;;;1999.90;999.90;;;3.50;99.90;;;;;;4996060;28;20034;-72
2023/03/06 05:37:44;;;;;;;1999.90;999.90;;;3.60;99.90;;;;;;4995591;28;20028;-80
2023/03/06 05:40:10;;;;;;;1999.90;999.90;;;3.60;99.90;;;;;;5018395;28;20083;-73
2023/03/06 05:42:36;;;;;;;1999.90;999.90;;;3.60;99.90;;;;;;5035191;28;20088;-72
2023/03/06 05:45:03;;;;;;;1999.90;999.90;;;3.60;99.90;;;;;;5033917;28;20037;-72
2023/03/06 05:47:29;;;;;;;1999.90;999.90;;;3.60;99.90;;;;;;5015126;28;20046;-72
2023/03/06 05:49:55;;;;;;;1999.90;999.90;;;3.60;99.90;;;;;;5015146;28;20026;-80
2023/03/06 05:52:20;;;;;;;1999.90;999.90;;;3.60;99.90;;;;;;5014950;28;20088;-80
2023/03/06 05:54:50;;;;;;;1999.90;999.90;;;3.60;99.90;;;;;;5015180;28;20018;-72
2023/03/06 05:57:17;;;;;;;1999.90;999.90;;;3.60;99.90;;;;;;5011925;28;20058;-73
2023/03/06 05:59:42;;;;;;;1999.90;999.90;;;3.60;99.90;;;;;;5014641;28;20544;-72
2023/03/06 06:02:08;;;;;;;1999.90;999.90;;;3.60;99.90;;;;;;5012750;28;20053;-72
2023/03/06 06:04:33;;;;;;;1999.90;999.90;;;3.60;99.90;;;;;;4994668;28;20367;-81
2023/03/06 06:06:59;;;;;;;1999.90;999.90;;;3.70;99.90;;;;;;4995133;28;20108;-80
2023/03/06 06:09:26;;;;;;;1999.90;999.90;;;3.60;99.90;;;;;;4995099;28;20508;-73
2023/03/06 06:11:53;;;;;;;1999.90;999.90;;;3.60;99.90;;;;;;4993758;28;20034;-73
2023/03/06 06:14:19;;;;;;;1999.90;999.90;;;3.60;99.90;;;;;;4994781;28;20026;-73
2023/03/06 06:16:44;;;;;;;1999.90;999.90;;;3.60;99.90;;;;;;4994973;28;20499;-73
2023/03/06 06:19:17;;;;;;;1999.90;999.90;;;3.60;99.90;;;;;;4995012;28;20085;-73
2023/03/06 06:21:44;;;;;;;1999.90;999.90;;;3.60;99.90;;;;;;4994935;28;20026;-73
2023/03/06 06:24:09;;;;;;;1999.90;999.90;;;3.70;99.90;;;;;;4994901;28;20391;-73
2023/03/06 06:26:35;;;;;;;1999.90;999.90;;;3.70;99.90;;;;;;4994658;28;20054;-73
2023/03/06 06:29:03;;;;;;;1999.90;999.90;;;3.70;99.90;;;;;;4993705;28;20128;-73
2023/03/06 06:31:29;;;;;;;1999.90;999.90;;;3.70;99.90;;;;;;5001187;28;20030;-81
2023/03/06 06:33:54;;;;;;;1999.90;999.90;;;3.70;99.90;;;;;;5004936;28;20041;-80
2023/03/06 06:36:20;;;;;;;1999.90;999.90;;;3.70;99.90;;;;;;5012017;28;20117;-81
2023/03/06 06:38:46;;;;;;;1999.90;999.90;;;3.70;99.90;;;;;;5013595;28;20014;-77
2023/03/06 06:41:12;;;;;;;1999.90;999.90;;;3.70;99.90;;;;;;5017507;28;20504;-81
2023/03/06 06:43:37;;;;;;;1999.90;999.90;;;3.70;99.90;;;;;;5013465;28;20072;-73
2023/03/06 06:46:03;;;;;;;1999.90;999.90;;;3.70;99.90;;;;;;5013109;28;20026;-74
2023/03/06 06:48:29;;;;;;;1999.90;999.90;;;3.80;99.90;;;;;;5013271;28;20524;-73
2023/03/06 06:50:58;;;;;;;1999.90;999.90;;;3.80;99.90;;;;;;5016072;28;20021;-73
2023/03/06 06:53:24;;;;;;;1999.90;999.90;;;3.80;99.90;;;;;;5033066;28;20030;-81
2023/03/06 06:55:50;;;;;;;1999.90;999.90;;;3.90;99.90;;;;;;5015821;28;20404;-74
2023/03/06 06:58:16;;;;;;;1999.90;999.90;;;3.90;99.90;;;;;;5012905;28;20030;-73
2023/03/06 07:00:42;;;;;;;1999.90;999.90;;;3.90;99.90;;;;;;5014126;28;20030;-82
2023/03/06 07:03:09;;;;;;;1999.90;999.90;;;3.90;99.90;;;;;;5021777;28;20402;-74
2023/03/06 07:05:34;;;;;;;1999.90;999.90;;;3.90;99.90;;;;;;5010327;28;20040;-80
2023/03/06 07:08:00;;;;;;;1999.90;999.90;;;3.90;99.90;;;;;;5014600;28;20029;-74
2023/03/06 07:10:26;;;;;;;1999.90;999.90;;;4.00;99.90;;;;;;5025834;28;20103;-73
2023/03/06 07:12:51;;;;;;;1999.90;999.90;;;4.00;99.90;;;;;;5002007;28;20038;-74
2023/03/06 07:15:17;;;;;;;1999.90;999.90;;;4.00;99.90;;;;;;5007638;28;20064;-80
2023/03/06 07:17:43;;;;;;;1999.90;999.90;;;4.10;99.90;;;;;;5015627;28;20033;-74
2023/03/06 07:20:09;;;;;;;1999.90;999.90;;;4.10;99.90;;;;;;5010777;28;20038;-81
2023/03/06 07:22:35;;;;;;;1999.90;999.90;;;4.20;99.90;;;;;;5009692;28;20120;-73
2023/03/06 07:25:02;;;;;;;1999.90;999.90;;;4.20;99.90;;;;;;5010481;28;20034;-74
2023/03/06 07:27:28;;;;;;;1999.90;999.90;;;4.10;99.90;;;;;;5009983;28;20045;-80
2023/03/06 07:29:53;;;;;;;1999.90;999.90;;;4.20;99.90;;;;;;5001101;28;20034;-80
2023/03/06 07:32:19;;;;;;;1999.90;999.90;;;4.20;99.90;;;;;;5008545;28;20046;-73
2023/03/06 07:34:45;;;;;;;1999.90;999.90;;;4.20;99.90;;;;;;5007256;28;20026;-73
2023/03/06 07:37:11;;;;;;;1999.90;999.90;;;4.30;99.90;;;;;;5005431;28;20119;-73
2023/03/06 07:39:37;;;;;;;1999.90;999.90;;;4.40;99.90;;;;;;5007578;28;20029;-73
2023/03/06 07:42:03;;;;;;;1999.90;999.90;;;4.40;99.90;;;;;;5013813;28;20100;-80
2023/03/06 07:44:28;;;;;;;1999.90;999.90;;;4.60;99.90;;;;;;5010899;28;20034;-80
2023/03/06 07:46:54;;;;;;;1999.90;999.90;;;4.70;99.90;;;;;;5006864;28;20030;-73
2023/03/06 07:49:20;;;;;;;1999.90;999.90;;;4.80;99.90;;;;;;5008722;28;20022;-73
2023/03/06 07:51:45;;;;;;;1999.90;999.90;;;4.80;99.90;;;;;;5006244;28;20068;-80
2023/03/06 07:54:11;;;;;;;1999.90;999.90;;;4.90;99.90;;;;;;5007141;28;20042;-80
2023/03/06 07:56:37;;;;;;;1999.90;999.90;;;4.90;99.90;;;;;;5009338;28;20050;-73
2023/03/06 07:59:03;;;;;;;1999.90;999.90;;;5.00;99.90;;;;;;5013090;28;20037;-80
2023/03/06 08:01:28;;;;;;;1999.90;999.90;;;5.00;99.90;;;;;;5023239;28;20132;-74
2023/03/06 08:03:54;;;;;;;1999.90;999.90;;;5.00;99.90;;;;;;5004831;28;20496;-73
2023/03/06 08:06:25;;;;;;;1999.90;999.90;;;5.10;99.90;;;;;;5005621;28;20113;-80
2023/03/06 08:08:53;;;;;;;1999.90;999.90;;;5.30;99.90;;;;;;5010206;28;20038;-80
2023/03/06 08:11:21;;;;;;;1999.90;999.90;;;5.30;99.90;;;;;;5009643;28;20079;-80
2023/03/06 08:13:47;;;;;;;1999.90;999.90;;;5.40;99.90;;;;;;4995979;28;20046;-74
2023/03/06 08:16:14;;;;;;;1999.90;999.90;;;5.50;99.90;;;;;;5007259;28;20030;-74
2023/03/06 08:18:40;;;;;;;1999.90;999.90;;;5.50;99.90;;;;;;5009051;28;20101;-73
2023/03/06 08:21:11;;;;;;;1999.90;999.90;;;5.60;99.90;;;;;;5008836;28;20022;-80
2023/03/06 08:23:37;;;;;;;1999.90;999.90;;;5.70;99.90;;;;;;5002877;28;20042;-74
2023/03/06 08:26:06;;;;;;;1999.90;999.90;;;5.80;99.90;;;;;;5008571;28;20465;-74
2023/03/06 08:28:32;;;;;;;1999.90;999.90;;;5.80;99.90;;;;;;5009481;28;20820;-73
2023/03/06 08:31:05;;;;;;;1999.90;999.90;;;5.70;99.90;;;;;;5024560;28;20030;-80
2023/03/06 08:33:31;;;;;;;1999.90;999.90;;;5.70;99.90;;;;;;5028228;28;20044;-74
2023/03/06 08:35:56;;;;;;;1999.90;999.90;;;5.80;99.90;;;;;;5012605;28;20030;-80
2023/03/06 08:38:22;;;;;;;1999.90;999.90;;;5.90;99.90;;;;;;5010691;28;20045;-74
2023/03/06 08:40:48;;;;;;;1999.90;999.90;;;5.90;99.90;;;;;;5015891;28;20030;-74
2023/03/06 08:43:13;;;;;;;1999.90;999.90;;;6.00;99.90;;;;;;5011472;28;20493;-74
2023/03/06 08:45:39;;;;;;;1999.90;999.90;;;5.90;99.90;;;;;;5013110;28;20050;-81
2023/03/06 08:48:04;;;;;;;1999.90;999.90;;;6.00;99.90;;;;;;5011642;28;20481;-80
2023/03/06 08:50:30;;;;;;;1999.90;999.90;;;6.20;99.90;;;;;;5013312;28;20040;-80
2023/03/06 08:52:56;;;;;;;1999.90;999.90;;;6.20;99.90;;;;;;5010769;28;20041;-74
2023/03/06 08:55:21;;;;;;;1999.90;999.90;;;6.30;99.90;;;;;;5012025;28;20180;-73
2023/03/06 08:57:47;;;;;;;1999.90;999.90;;;6.30;99.90;;;;;;5009559;28;20386;-74
2023/03/06 09:00:13;;;;;;;1999.90;999.90;;;6.30;99.90;;;;;;5008831;28;20033;-80
2023/03/06 09:02:39;;;;;;;1999.90;999.90;;;6.30;99.90;;;;;;5009835;28;20065;-74
2023/03/06 09:05:06;;;;;;;1999.90;999.90;;;6.30;99.90;;;;;;5014695;28;20138;-79
2023/03/06 09:07:32;;;;;;;1999.90;999.90;;;6.30;99.90;;;;;;5021118;28;20048;-79
2023/03/06 09:09:58;;;;;;;1999.90;999.90;;;6.50;99.90;;;;;;5012896;28;20132;-77
2023/03/06 09:12:24;;;;;;;1999.90;999.90;;;6.50;99.90;;;;;;5010917;28;20548;-74
2023/03/06 09:14:49;;;;;;;1999.90;999.90;;;6.70;99.90;;;;;;5012527;28;20029;-80
2023/03/06 09:17:15;;;;;;;1999.90;999.90;;;6.80;99.90;;;;;;5008365;28;20053;-80
2023/03/06 09:19:41;;;;;;;1999.90;999.90;;;7.10;99.90;;;;;;5011622;28;20113;-74
2023/03/06 09:22:06;;;;;;;1999.90;999.90;;;7.20;99.90;;;;;;5015058;28;20040;-74
2023/03/06 09:24:32;;;;;;;1999.90;999.90;;;7.30;99.90;;;;;;5028512;28;20115;-73
2023/03/06 09:26:58;;;;;;;1999.90;999.90;;;7.40;99.90;;;;;;5011544;28;20030;-73
2023/03/06 09:29:23;;;;;;;1999.90;999.90;;;7.60;99.90;;;;;;5009333;28;20100;-80
2023/03/06 09:31:49;;;;;;;1999.90;999.90;;;7.70;99.90;;;;;;5010227;28;20111;-74
2023/03/06 09:34:15;;;;;;;1999.90;999.90;;;7.80;99.90;;;;;;5001752;28;20402;-74
2023/03/06 09:36:41;;;;;;;1999.90;999.90;;;7.90;99.90;;;;;;5007700;28;20485;-78
2023/03/06 09:39:07;;;;;;;1999.90;999.90;;;7.90;99.90;;;;;;5011586;28;20068;-81
2023/03/06 09:41:41;;;;;;;1999.90;999.90;;;8.20;99.90;;;;;;5016398;28;20026;-73
2023/03/06 09:44:14;;;;;;;1999.90;999.90;;;8.00;99.90;;;;;;5003431;28;20058;-74
2023/03/06 09:47:14;;;;;;;1999.90;999.90;;;8.00;99.90;;;;;;5011775;28;20076;-74
2023/03/06 09:50:03;;;;;;;1999.90;999.90;;;8.30;99.90;;;;;;5010455;28;20041;-74
2023/03/06 09:52:35;;;;;;;1999.90;999.90;;;8.70;99.90;;;;;;5008900;28;20036;-74
2023/03/06 09:55:06;;;;;;;1999.90;999.90;;;8.80;99.90;;;;;;5001885;28;20030;-74
2023/03/06 09:57:55;;;;;;;1999.90;999.90;;;9.00;99.90;;;;;;5009917;28;20032;-74
2023/03/06 10:00:29;;;;;;;1999.90;999.90;;;9.00;99.90;;;;;;5010455;28;20076;-80
2023/03/06 10:03:23;;;;;;;1999.90;999.90;;;9.20;99.90;;;;;;5011746;28;20033;-73
2023/03/06 10:06:21;;;;;;;1999.90;999.90;;;9.10;99.90;;;;;;5046053;28;20408;-74
2023/03/06 10:09:17;;;;;;;1999.90;999.90;;;9.20;99.90;;;;;;5013368;28;20463;-74
2023/03/06 10:12:05;;;;;;;1999.90;999.90;;;9.10;99.90;;;;;;5010620;28;20038;-74
2023/03/06 10:14:42;;;;;;;1999.90;999.90;;;8.90;99.90;;;;;;5011715;28;20116;-78
2023/03/06 10:17:22;;;;;;;1999.90;999.90;;;9.10;99.90;;;;;;5011385;28;20034;-80
2023/03/06 10:19:48;;;;;;;1999.90;999.90;;;9.20;99.90;;;;;;5011062;28;20056;-80
2023/03/06 10:22:42;;;;;;;1999.90;999.90;;;9.10;99.90;;;;;;5017338;28;20100;-80
2023/03/06 10:25:18;;;;;;;1999.90;999.90;;;9.20;99.90;;;;;;5012189;28;20030;-74
2023/03/06 10:27:50;;;;;;;1999.90;999.90;;;9.20;99.90;;;;;;5043194;28;20440;-80
2023/03/06 10:30:21;;;;;;;1999.90;999.90;;;9.20;99.90;;;;;;5011948;28;20074;-78
2023/03/06 10:32:58;;;;;;;1999.90;999.90;;;9.10;99.90;;;;;;5011056;28;20030;-79
2023/03/06 10:35:30;;;;;;;1999.90;999.90;;;9.00;99.90;;;;;;5010299;28;20370;-80
2023/03/06 10:38:19;;;;;;;1999.90;999.90;;;8.90;99.90;;;;;;5007870;28;20038;-74
2023/03/06 10:40:57;;;;;;;1999.90;999.90;;;8.60;99.90;;;;;;5010362;28;20033;-74
2023/03/06 10:43:22;;;;;;;1999.90;999.90;;;8.40;99.90;;;;;;5011306;28;20045;-74
2023/03/06 10:45:51;;;;;;;1999.90;999.90;;;8.50;99.90;;;;;;5011106;28;20037;-80
2023/03/06 10:48:22;;;;;;;1999.90;999.90;;;8.40;99.90;;;;;;5008998;28;20050;-80
2023/03/06 10:50:48;;;;;;;1999.90;999.90;;;8.50;99.90;;;;;;5010451;28;20053;-74
2023/03/06 10:53:21;;;;;;;1999.90;999.90;;;8.30;99.90;;;;;;5010729;28;20034;-74
2023/03/06 10:55:56;;;;;;;1999.90;999.90;;;8.40;99.90;;;;;;5007466;28;20033;-80
2023/03/06 10:58:31;;;;;;;1999.90;999.90;;;8.30;99.90;;;;;;5008976;28;20042;-73
2023/03/06 11:01:18;;;;;;;1999.90;999.90;;;8.30;99.90;;;;;;5005745;28;20021;-80
2023/03/06 11:03:44;;;;;;;1999.90;999.90;;;8.40;99.90;;;;;;5010288;28;20108;-74
2023/03/06 11:06:28;;;;;;;1999.90;999.90;;;8.40;99.90;;;;;;5011196;28;20105;-79
2023/03/06 11:08:54;;;;;;;1999.90;999.90;;;8.50;99.90;;;;;;5008030;28;20060;-77
2023/03/06 11:11:22;;;;;;;1999.90;999.90;;;8.40;99.90;;;;;;5006950;28;20120;-79
2023/03/06 11:13:57;;;;;;;1999.90;999.90;;;8.40;99.90;;;;;;5003995;28;20071;-74
2023/03/06 11:16:29;;;;;;;1999.90;999.90;;;8.40;99.90;;;;;;5004566;28;20599;-80
2023/03/06 11:19:02;;;;;;;1999.90;999.90;;;8.40;99.90;;;;;;5009713;28;20066;-73
2023/03/06 11:21:35;;;;;;;;;;;8.20;99.90;;;;;;5006907;28;20029;-80
2023/03/06 11:24:13;;;;;;;1999.90;999.90;;;8.10;99.90;;;;;;5005731;28;19968;-80
2023/03/06 11:26:57;;;;;;;1999.90;999.90;;;8.50;99.90;;;;;;5008756;28;20022;-81
2023/03/06 11:29:41;;;;;;;1999.90;999.90;;;8.70;99.90;;;;;;5007066;28;20112;-75
2023/03/06 11:32:16;;;;;;;1999.90;999.90;;;8.90;99.90;;;;;;5002610;28;20432;-80
2023/03/06 11:35:08;;;;;;;1999.90;999.90;;;8.80;99.90;;;;;;5009079;28;20417;-80
2023/03/06 11:37:52;;;;;;;1999.90;999.90;;;8.60;99.90;;;;;;5006436;28;20041;-79
2023/03/06 11:40:30;;;;;;;1999.90;999.90;;;9.20;99.90;;;;;;5014320;28;20076;-80
2023/03/06 11:43:16;;;;;;;1999.90;999.90;;;8.70;99.90;;;;;;5006039;28;20030;-75
2023/03/06 11:45:52;;;;;;;1999.90;999.90;;;8.80;99.90;;;;;;5007963;28;21991;-80
2023/03/06 11:48:20;;;;;;;1999.90;999.90;;;8.50;99.90;;;;;;5010559;28;20042;-75
2023/03/06 11:50:58;;;;;;;1999.90;999.90;;;8.80;99.90;;;;;;5017035;28;20042;-79
2023/03/06 11:53:34;;;;;;;1999.90;999.90;;;8.90;99.90;;;;;;5015273;28;20029;-80
2023/03/06 11:56:18;;;;;;;1999.90;999.90;;;9.10;99.90;;;;;;5009896;28;20053;-75
2023/03/06 11:58:49;;;;;;;1999.90;999.90;;;9.20;99.90;;;;;;5012694;28;20030;-80
2023/03/06 12:01:45;;;;;;;1999.90;999.90;;;9.20;99.90;;;;;;5008321;28;20076;-80
2023/03/06 12:04:14;;;;;;;1999.90;999.90;;;9.40;99.90;;;;;;5012586;28;20507;-80
2023/03/06 12:06:58;;;;;;;1999.90;999.90;;;9.60;99.90;;;;;;5009089;28;20038;-75
2023/03/06 12:09:53;;;;;;;1999.90;999.90;;;9.40;99.90;;;;;;5006106;28;20022;-75
2023/03/06 12:12:38;;;;;;;1999.90;999.90;;;9.50;99.90;;;;;;5005298;28;20113;-80
2023/03/06 12:15:44;;;;;;;1999.90;999.90;;;9.20;99.90;;;;;;5006838;28;20030;-79
2023/03/06 12:18:33;;;;;;;1999.90;999.90;;;9.80;99.90;;;;;;5001398;28;20104;-81